Terminal Aerodrome Forecast
Issued by NWS San Angelo, TX

Home | Current Version | Previous Version | Text Only | Print | Product List | Glossary On
Versions: 1 2 3 4 5 6 7 8 9 10 11 12 13
000
FTUS44 KSJT 192325
TAFSJT
TAF
KSJT 192325Z 2000/2024 15009KT P6SM BKN250
     FM200900 17011KT P6SM VCSH BKN015
     FM201700 17011G19KT P6SM BKN035
     FM202000 18010G20KT P6SM BKN060=

USA.gov is the U.S. government's official web portal to all federal, state and local government web resources and services.